sensor_id;sensor_type;location;lat;lon;timestamp;pressure;altitude;pressure_sealevel;temperature;humidity
31538;BME280;18147;51.952;6.146;2024-03-23T00:55:58;100953.34;;;8.73;100.00
31538;BME280;18147;51.952;6.146;2024-03-23T00:58:24;100952.81;;;8.67;100.00
31538;BME280;18147;51.952;6.146;2024-03-23T01:00:49;100940.88;;;8.58;100.00
31538;BME280;18147;51.952;6.146;2024-03-23T01:03:15;100937.13;;;8.62;100.00
31538;BME280;18147;51.952;6.146;2024-03-23T01:05:40;100942.63;;;8.59;100.00
31538;BME280;18147;51.952;6.146;2024-03-23T01:08:06;100940.13;;;8.56;100.00
31538;BME280;18147;51.952;6.146;2024-03-23T01:10:31;100932.06;;;8.57;100.00
31538;BME280;18147;51.952;6.146;2024-03-23T01:12:57;100942.69;;;8.57;100.00
31538;BME280;18147;51.952;6.146;2024-03-23T01:15:22;100940.78;;;8.44;100.00
31538;BME280;18147;51.952;6.146;2024-03-23T01:17:48;100934.66;;;8.42;100.00
31538;BME280;18147;51.952;6.146;2024-03-23T01:20:13;100936.31;;;8.44;100.00
31538;BME280;18147;51.952;6.146;2024-03-23T01:22:39;100936.47;;;8.41;100.00
31538;BME280;18147;51.952;6.146;2024-03-23T01:25:04;100925.69;;;8.27;100.00
31538;BME280;18147;51.952;6.146;2024-03-23T01:27:30;100919.06;;;8.18;100.00
31538;BME280;18147;51.952;6.146;2024-03-23T01:29:55;100931.16;;;8.24;100.00
31538;BME280;18147;51.952;6.146;2024-03-23T01:32:21;100926.09;;;8.19;100.00
31538;BME280;18147;51.952;6.146;2024-03-23T01:34:46;100918.19;;;8.18;100.00
31538;BME280;18147;51.952;6.146;2024-03-23T01:37:12;100916.72;;;8.12;100.00
31538;BME280;18147;51.952;6.146;2024-03-23T01:39:37;100917.50;;;8.14;100.00
31538;BME280;18147;51.952;6.146;2024-03-23T01:42:03;100909.22;;;8.20;100.00
31538;BME280;18147;51.952;6.146;2024-03-23T01:44:29;100908.50;;;8.17;100.00
31538;BME280;18147;51.952;6.146;2024-03-23T01:46:54;100898.91;;;8.14;100.00
31538;BME280;18147;51.952;6.146;2024-03-23T01:49:20;100904.38;;;8.11;100.00
31538;BME280;18147;51.952;6.146;2024-03-23T01:51:46;100901.88;;;8.08;100.00
31538;BME280;18147;51.952;6.146;2024-03-23T01:54:11;100909.69;;;8.11;100.00
31538;BME280;18147;51.952;6.146;2024-03-23T01:56:37;100900.25;;;8.05;100.00
31538;BME280;18147;51.952;6.146;2024-03-23T01:59:05;100897.72;;;8.02;100.00
31538;BME280;18147;51.952;6.146;2024-03-23T02:01:37;100895.03;;;8.04;100.00
31538;BME280;18147;51.952;6.146;2024-03-23T02:04:02;100896.56;;;8.08;100.00
31538;BME280;18147;51.952;6.146;2024-03-23T02:06:28;100896.97;;;8.00;100.00
31538;BME280;18147;51.952;6.146;2024-03-23T02:08:57;100895.09;;;8.02;100.00
31538;BME280;18147;51.952;6.146;2024-03-23T02:11:23;100890.81;;;8.00;100.00
31538;BME280;18147;51.952;6.146;2024-03-23T02:13:48;100893.47;;;8.00;100.00
31538;BME280;18147;51.952;6.146;2024-03-23T02:16:14;100889.94;;;7.99;100.00
31538;BME280;18147;51.952;6.146;2024-03-23T02:18:39;100887.13;;;8.02;100.00
31538;BME280;18147;51.952;6.146;2024-03-23T02:21:05;100868.84;;;7.96;100.00
31538;BME280;18147;51.952;6.146;2024-03-23T02:23:30;100865.44;;;7.94;100.00
31538;BME280;18147;51.952;6.146;2024-03-23T02:25:56;100868.72;;;7.99;100.00
31538;BME280;18147;51.952;6.146;2024-03-23T02:28:21;100865.81;;;7.87;100.00
31538;BME280;18147;51.952;6.146;2024-03-23T02:30:51;100859.81;;;7.83;100.00
31538;BME280;18147;51.952;6.146;2024-03-23T02:33:16;100862.53;;;7.82;100.00
31538;BME280;18147;51.952;6.146;2024-03-23T02:35:43;100860.91;;;7.79;100.00
31538;BME280;18147;51.952;6.146;2024-03-23T02:38:09;100861.38;;;7.87;100.00
31538;BME280;18147;51.952;6.146;2024-03-23T02:40:34;100857.31;;;7.80;100.00
31538;BME280;18147;51.952;6.146;2024-03-23T02:42:59;100859.50;;;7.89;100.00
31538;BME280;18147;51.952;6.146;2024-03-23T02:45:25;100862.16;;;7.89;100.00
31538;BME280;18147;51.952;6.146;2024-03-23T02:47:50;100854.25;;;8.05;100.00
31538;BME280;18147;51.952;6.146;2024-03-23T02:50:19;100850.34;;;7.95;100.00
31538;BME280;18147;51.952;6.146;2024-03-23T02:52:44;100840.91;;;7.89;100.00
31538;BME280;18147;51.952;6.146;2024-03-23T02:55:10;100847.00;;;7.91;100.00
31538;BME280;18147;51.952;6.146;2024-03-23T02:57:35;100846.78;;;7.78;100.00
31538;BME280;18147;51.952;6.146;2024-03-23T03:00:01;100854.53;;;7.83;100.00
31538;BME280;18147;51.952;6.146;2024-03-23T03:02:26;100855.28;;;7.68;100.00
31538;BME280;18147;51.952;6.146;2024-03-23T03:04:52;100869.16;;;7.73;100.00
31538;BME280;18147;51.952;6.146;2024-03-23T03:07:17;100859.91;;;7.64;100.00
31538;BME280;18147;51.952;6.146;2024-03-23T03:09:43;100864.50;;;7.61;100.00
31538;BME280;18147;51.952;6.146;2024-03-23T03:12:08;100866.63;;;7.54;100.00
31538;BME280;18147;51.952;6.146;2024-03-23T03:14:34;100869.28;;;7.54;100.00
31538;BME280;18147;51.952;6.146;2024-03-23T03:17:00;100870.66;;;7.44;100.00
31538;BME280;18147;51.952;6.146;2024-03-23T03:19:26;100869.00;;;7.41;100.00
31538;BME280;18147;51.952;6.146;2024-03-23T03:21:51;100866.13;;;7.46;100.00
31538;BME280;18147;51.952;6.146;2024-03-23T03:24:16;100861.69;;;7.64;100.00
31538;BME280;18147;51.952;6.146;2024-03-23T03:26:42;100860.28;;;7.57;100.00
31538;BME280;18147;51.952;6.146;2024-03-23T03:29:08;100858.44;;;7.59;100.00
31538;BME280;18147;51.952;6.146;2024-03-23T03:31:33;100869.41;;;7.51;100.00
31538;BME280;18147;51.952;6.146;2024-03-23T03:33:59;100863.16;;;7.52;100.00
31538;BME280;18147;51.952;6.146;2024-03-23T03:36:24;100872.16;;;7.49;100.00
31538;BME280;18147;51.952;6.146;2024-03-23T03:38:50;100863.34;;;7.49;100.00
31538;BME280;18147;51.952;6.146;2024-03-23T03:41:15;100860.91;;;7.44;100.00
31538;BME280;18147;51.952;6.146;2024-03-23T03:43:41;100866.84;;;7.49;100.00
31538;BME280;18147;51.952;6.146;2024-03-23T03:46:06;100862.31;;;7.51;100.00
31538;BME280;18147;51.952;6.146;2024-03-23T03:48:33;100848.28;;;7.49;100.00
31538;BME280;18147;51.952;6.146;2024-03-23T03:50:59;100856.59;;;7.42;100.00
31538;BME280;18147;51.952;6.146;2024-03-23T03:53:24;100845.63;;;7.49;100.00
31538;BME280;18147;51.952;6.146;2024-03-23T03:55:50;100842.13;;;7.49;100.00
31538;BME280;18147;51.952;6.146;2024-03-23T03:58:15;100848.97;;;7.53;100.00
31538;BME280;18147;51.952;6.146;2024-03-23T04:00:40;100846.06;;;7.58;100.00
31538;BME280;18147;51.952;6.146;2024-03-23T04:03:06;100845.00;;;7.44;100.00
31538;BME280;18147;51.952;6.146;2024-03-23T04:05:31;100842.41;;;7.43;100.00
31538;BME280;18147;51.952;6.146;2024-03-23T04:07:57;100835.25;;;7.45;100.00
31538;BME280;18147;51.952;6.146;2024-03-23T04:10:22;100847.03;;;7.39;100.00
31538;BME280;18147;51.952;6.146;2024-03-23T04:12:48;100841.69;;;7.22;100.00
31538;BME280;18147;51.952;6.146;2024-03-23T04:15:13;100841.00;;;7.18;100.00
31538;BME280;18147;51.952;6.146;2024-03-23T04:17:39;100842.28;;;7.10;100.00
31538;BME280;18147;51.952;6.146;2024-03-23T04:20:06;100844.22;;;7.06;100.00
31538;BME280;18147;51.952;6.146;2024-03-23T04:22:34;100837.66;;;6.96;100.00
31538;BME280;18147;51.952;6.146;2024-03-23T04:25:00;100842.03;;;6.97;100.00
31538;BME280;18147;51.952;6.146;2024-03-23T04:27:25;100842.81;;;6.99;100.00
31538;BME280;18147;51.952;6.146;2024-03-23T04:29:51;100846.25;;;7.01;100.00
31538;BME280;18147;51.952;6.146;2024-03-23T04:32:18;100846.84;;;6.89;100.00
31538;BME280;18147;51.952;6.146;2024-03-23T04:34:44;100845.50;;;6.80;100.00
31538;BME280;18147;51.952;6.146;2024-03-23T04:37:10;100841.03;;;6.81;100.00
31538;BME280;18147;51.952;6.146;2024-03-23T04:39:38;100833.81;;;6.84;100.00
31538;BME280;18147;51.952;6.146;2024-03-23T04:42:04;100842.28;;;6.73;100.00
31538;BME280;18147;51.952;6.146;2024-03-23T04:44:30;100838.69;;;6.74;100.00
31538;BME280;18147;51.952;6.146;2024-03-23T04:46:57;100836.81;;;6.77;100.00
31538;BME280;18147;51.952;6.146;2024-03-23T04:49:23;100834.75;;;6.64;100.00
31538;BME280;18147;51.952;6.146;2024-03-23T04:51:49;100836.56;;;6.64;100.00
31538;BME280;18147;51.952;6.146;2024-03-23T04:54:15;100844.50;;;6.64;100.00
31538;BME280;18147;51.952;6.146;2024-03-23T04:56:41;100837.06;;;6.53;100.00
31538;BME280;18147;51.952;6.146;2024-03-23T04:59:06;100838.06;;;6.51;100.00
31538;BME280;18147;51.952;6.146;2024-03-23T05:01:32;100828.66;;;6.62;100.00
31538;BME280;18147;51.952;6.146;2024-03-23T05:04:02;100825.66;;;6.51;100.00
31538;BME280;18147;51.952;6.146;2024-03-23T05:06:27;100829.47;;;6.45;100.00
31538;BME280;18147;51.952;6.146;2024-03-23T05:08:52;100829.75;;;6.39;100.00
31538;BME280;18147;51.952;6.146;2024-03-23T05:11:18;100834.31;;;6.36;100.00
31538;BME280;18147;51.952;6.146;2024-03-23T05:13:44;100830.03;;;6.33;100.00
31538;BME280;18147;51.952;6.146;2024-03-23T05:16:09;100827.59;;;6.29;100.00
31538;BME280;18147;51.952;6.146;2024-03-23T05:18:35;100830.72;;;6.37;100.00
31538;BME280;18147;51.952;6.146;2024-03-23T05:21:01;100827.31;;;6.35;100.00
31538;BME280;18147;51.952;6.146;2024-03-23T05:23:28;100828.47;;;6.29;100.00
31538;BME280;18147;51.952;6.146;2024-03-23T05:25:54;100825.81;;;6.29;100.00
31538;BME280;18147;51.952;6.146;2024-03-23T05:28:20;100834.47;;;6.33;100.00
31538;BME280;18147;51.952;6.146;2024-03-23T05:30:55;100830.28;;;6.27;100.00
31538;BME280;18147;51.952;6.146;2024-03-23T05:33:22;100837.47;;;6.25;100.00
31538;BME280;18147;51.952;6.146;2024-03-23T05:35:56;100824.00;;;6.11;100.00
31538;BME280;18147;51.952;6.146;2024-03-23T05:38:22;100825.94;;;6.26;100.00
31538;BME280;18147;51.952;6.146;2024-03-23T05:40:57;100831.53;;;6.20;100.00
31538;BME280;18147;51.952;6.146;2024-03-23T05:43:23;100836.69;;;6.23;100.00
31538;BME280;18147;51.952;6.146;2024-03-23T05:46:07;100838.63;;;6.38;100.00
31538;BME280;18147;51.952;6.146;2024-03-23T05:48:35;100836.03;;;6.56;100.00
31538;BME280;18147;51.952;6.146;2024-03-23T05:51:01;100831.94;;;6.67;100.00
31538;BME280;18147;51.952;6.146;2024-03-23T05:53:26;100824.00;;;6.67;100.00
31538;BME280;18147;51.952;6.146;2024-03-23T05:56:01;100823.81;;;6.53;100.00
31538;BME280;18147;51.952;6.146;2024-03-23T05:58:29;100817.50;;;6.56;100.00
31538;BME280;18147;51.952;6.146;2024-03-23T06:00:58;100825.03;;;6.46;100.00
31538;BME280;18147;51.952;6.146;2024-03-23T06:03:30;100829.16;;;6.52;100.00
31538;BME280;18147;51.952;6.146;2024-03-23T06:05:55;100823.19;;;6.48;100.00
31538;BME280;18147;51.952;6.146;2024-03-23T06:08:22;100828.31;;;6.51;100.00
31538;BME280;18147;51.952;6.146;2024-03-23T06:10:47;100830.66;;;6.57;100.00
31538;BME280;18147;51.952;6.146;2024-03-23T06:13:13;100824.28;;;6.61;100.00
31538;BME280;18147;51.952;6.146;2024-03-23T06:15:39;100823.72;;;6.73;100.00
31538;BME280;18147;51.952;6.146;2024-03-23T06:18:04;100827.75;;;6.63;100.00
31538;BME280;18147;51.952;6.146;2024-03-23T06:20:30;100834.34;;;6.73;100.00
31538;BME280;18147;51.952;6.146;2024-03-23T06:22:56;100825.56;;;6.90;100.00
31538;BME280;18147;51.952;6.146;2024-03-23T06:25:22;100815.69;;;6.94;100.00
31538;BME280;18147;51.952;6.146;2024-03-23T06:27:47;100819.28;;;6.93;100.00
31538;BME280;18147;51.952;6.146;2024-03-23T06:30:13;100824.03;;;7.04;100.00
31538;BME280;18147;51.952;6.146;2024-03-23T06:32:38;100823.69;;;6.92;100.00
31538;BME280;18147;51.952;6.146;2024-03-23T06:35:04;100821.63;;;7.16;100.00
31538;BME280;18147;51.952;6.146;2024-03-23T06:37:35;100821.25;;;7.24;100.00
31538;BME280;18147;51.952;6.146;2024-03-23T06:40:01;100817.13;;;7.18;100.00
31538;BME280;18147;51.952;6.146;2024-03-23T06:42:26;100820.00;;;7.14;100.00
31538;BME280;18147;51.952;6.146;2024-03-23T06:44:51;100813.22;;;7.25;100.00
31538;BME280;18147;51.952;6.146;2024-03-23T06:47:17;100811.50;;;7.42;100.00
31538;BME280;18147;51.952;6.146;2024-03-23T06:49:42;100809.88;;;7.57;100.00
31538;BME280;18147;51.952;6.146;2024-03-23T06:52:08;100810.09;;;7.69;100.00
31538;BME280;18147;51.952;6.146;2024-03-23T06:54:33;100816.03;;;7.74;100.00
31538;BME280;18147;51.952;6.146;2024-03-23T06:56:59;100817.69;;;7.60;100.00
31538;BME280;18147;51.952;6.146;2024-03-23T06:59:24;100809.78;;;7.75;100.00
31538;BME280;18147;51.952;6.146;2024-03-23T07:01:50;100817.75;;;7.75;100.00
31538;BME280;18147;51.952;6.146;2024-03-23T07:04:15;100816.69;;;7.95;100.00
31538;BME280;18147;51.952;6.146;2024-03-23T07:06:44;100816.00;;;8.25;100.00
31538;BME280;18147;51.952;6.146;2024-03-23T07:09:10;100812.28;;;8.45;100.00
31538;BME280;18147;51.952;6.146;2024-03-23T07:11:36;100806.44;;;9.01;100.00
31538;BME280;18147;51.952;6.146;2024-03-23T07:14:02;100804.09;;;9.11;100.00
31538;BME280;18147;51.952;6.146;2024-03-23T07:16:28;100804.31;;;8.76;100.00
31538;BME280;18147;51.952;6.146;2024-03-23T07:18:53;100812.19;;;8.62;100.00
31538;BME280;18147;51.952;6.146;2024-03-23T07:21:19;100812.03;;;8.49;100.00
31538;BME280;18147;51.952;6.146;2024-03-23T07:23:44;100811.19;;;8.31;100.00
31538;BME280;18147;51.952;6.146;2024-03-23T07:26:10;100807.13;;;8.57;100.00
31538;BME280;18147;51.952;6.146;2024-03-23T07:28:35;100803.97;;;8.82;100.00
31538;BME280;18147;51.952;6.146;2024-03-23T07:31:02;100817.25;;;8.67;100.00
31538;BME280;18147;51.952;6.146;2024-03-23T07:33:27;100815.66;;;8.64;100.00
31538;BME280;18147;51.952;6.146;2024-03-23T07:35:53;100804.72;;;8.53;100.00
31538;BME280;18147;51.952;6.146;2024-03-23T07:38:19;100808.00;;;8.74;100.00
31538;BME280;18147;51.952;6.146;2024-03-23T07:40:44;100803.63;;;8.73;100.00
31538;BME280;18147;51.952;6.146;2024-03-23T07:43:10;100800.09;;;8.88;100.00
31538;BME280;18147;51.952;6.146;2024-03-23T07:45:35;100804.63;;;9.02;100.00
31538;BME280;18147;51.952;6.146;2024-03-23T07:48:03;100798.03;;;9.39;100.00
31538;BME280;18147;51.952;6.146;2024-03-23T07:50:28;100799.38;;;9.46;100.00
31538;BME280;18147;51.952;6.146;2024-03-23T07:52:54;100788.41;;;9.81;100.00
31538;BME280;18147;51.952;6.146;2024-03-23T07:55:19;100803.03;;;9.59;100.00
31538;BME280;18147;51.952;6.146;2024-03-23T07:57:44;100785.16;;;9.76;100.00
31538;BME280;18147;51.952;6.146;2024-03-23T08:00:10;100786.13;;;10.03;100.00
31538;BME280;18147;51.952;6.146;2024-03-23T08:02:36;100783.88;;;10.26;100.00
31538;BME280;18147;51.952;6.146;2024-03-23T08:05:01;100790.63;;;10.46;100.00
31538;BME280;18147;51.952;6.146;2024-03-23T08:07:27;100788.66;;;10.62;100.00
31538;BME280;18147;51.952;6.146;2024-03-23T08:09:52;100781.94;;;11.10;100.00
31538;BME280;18147;51.952;6.146;2024-03-23T08:12:18;100783.50;;;11.00;100.00
31538;BME280;18147;51.952;6.146;2024-03-23T08:14:43;100782.63;;;10.46;100.00
31538;BME280;18147;51.952;6.146;2024-03-23T08:17:08;100785.91;;;9.78;100.00
31538;BME280;18147;51.952;6.146;2024-03-23T08:19:34;100793.22;;;9.60;100.00
31538;BME280;18147;51.952;6.146;2024-03-23T08:21:59;100793.38;;;9.43;100.00
31538;BME280;18147;51.952;6.146;2024-03-23T08:24:25;100798.56;;;9.89;100.00
31538;BME280;18147;51.952;6.146;2024-03-23T08:26:50;100787.97;;;10.31;100.00
31538;BME280;18147;51.952;6.146;2024-03-23T08:29:16;100800.97;;;10.07;100.00
31538;BME280;18147;51.952;6.146;2024-03-23T08:31:41;100800.94;;;9.65;100.00
31538;BME280;18147;51.952;6.146;2024-03-23T08:34:06;100803.72;;;9.92;100.00
31538;BME280;18147;51.952;6.146;2024-03-23T08:36:32;100794.41;;;10.13;100.00
31538;BME280;18147;51.952;6.146;2024-03-23T08:38:57;100798.50;;;10.19;100.00
31538;BME280;18147;51.952;6.146;2024-03-23T08:41:23;100799.66;;;10.43;100.00
31538;BME280;18147;51.952;6.146;2024-03-23T08:43:48;100787.84;;;9.76;100.00
31538;BME280;18147;51.952;6.146;2024-03-23T08:46:15;100795.28;;;9.99;100.00
31538;BME280;18147;51.952;6.146;2024-03-23T08:48:45;100782.59;;;9.74;100.00
31538;BME280;18147;51.952;6.146;2024-03-23T08:51:16;100793.94;;;9.92;100.00
31538;BME280;18147;51.952;6.146;2024-03-23T08:53:42;100786.19;;;9.59;100.00
31538;BME280;18147;51.952;6.146;2024-03-23T08:56:08;100788.59;;;9.78;100.00
31538;BME280;18147;51.952;6.146;2024-03-23T08:58:35;100783.09;;;10.38;100.00
31538;BME280;18147;51.952;6.146;2024-03-23T09:01:12;100778.50;;;10.54;100.00
31538;BME280;18147;51.952;6.146;2024-03-23T09:03:40;100786.81;;;10.35;100.00
31538;BME280;18147;51.952;6.146;2024-03-23T09:06:07;100781.78;;;10.72;100.00
31538;BME280;18147;51.952;6.146;2024-03-23T09:08:33;100779.09;;;10.99;100.00
31538;BME280;18147;51.952;6.146;2024-03-23T09:11:04;100767.69;;;10.97;100.00
31538;BME280;18147;51.952;6.146;2024-03-23T09:13:32;100778.13;;;11.27;100.00
31538;BME280;18147;51.952;6.146;2024-03-23T09:15:57;100773.34;;;11.32;100.00
31538;BME280;18147;51.952;6.146;2024-03-23T09:18:23;100783.22;;;11.70;100.00
31538;BME280;18147;51.952;6.146;2024-03-23T09:20:49;100779.19;;;12.03;99.42
31538;BME280;18147;51.952;6.146;2024-03-23T09:23:14;100781.53;;;11.95;100.00
31538;BME280;18147;51.952;6.146;2024-03-23T09:25:40;100799.72;;;10.70;100.00
31538;BME280;18147;51.952;6.146;2024-03-23T09:28:08;100802.97;;;9.90;100.00
31538;BME280;18147;51.952;6.146;2024-03-23T09:30:35;100818.16;;;9.29;100.00
31538;BME280;18147;51.952;6.146;2024-03-23T09:33:00;100803.88;;;9.00;100.00
31538;BME280;18147;51.952;6.146;2024-03-23T09:35:26;100784.13;;;8.88;100.00
31538;BME280;18147;51.952;6.146;2024-03-23T09:37:51;100794.28;;;8.81;100.00
31538;BME280;18147;51.952;6.146;2024-03-23T09:40:17;100778.81;;;8.88;100.00
31538;BME280;18147;51.952;6.146;2024-03-23T09:42:49;100777.13;;;8.71;100.00
31538;BME280;18147;51.952;6.146;2024-03-23T09:45:26;100785.47;;;8.65;100.00
31538;BME280;18147;51.952;6.146;2024-03-23T09:47:52;100784.88;;;9.06;100.00
31538;BME280;18147;51.952;6.146;2024-03-23T09:50:18;100767.63;;;9.57;100.00
31538;BME280;18147;51.952;6.146;2024-03-23T09:52:46;100759.84;;;9.69;100.00
31538;BME280;18147;51.952;6.146;2024-03-23T09:55:12;100771.59;;;9.95;100.00
31538;BME280;18147;51.952;6.146;2024-03-23T09:57:37;100772.44;;;10.09;100.00
31538;BME280;18147;51.952;6.146;2024-03-23T10:00:03;100771.47;;;10.10;100.00
31538;BME280;18147;51.952;6.146;2024-03-23T10:02:32;100768.25;;;10.05;100.00
31538;BME280;18147;51.952;6.146;2024-03-23T10:04:58;100764.91;;;9.59;100.00
31538;BME280;18147;51.952;6.146;2024-03-23T10:07:24;100767.88;;;9.24;100.00
31538;BME280;18147;51.952;6.146;2024-03-23T10:09:49;100770.22;;;9.59;100.00
31538;BME280;18147;51.952;6.146;2024-03-23T10:12:19;100769.94;;;9.78;100.00
31538;BME280;18147;51.952;6.146;2024-03-23T10:14:44;100767.28;;;9.78;100.00
31538;BME280;18147;51.952;6.146;2024-03-23T10:17:21;100762.53;;;10.11;100.00
31538;BME280;18147;51.952;6.146;2024-03-23T10:19:50;100761.69;;;10.40;100.00
31538;BME280;18147;51.952;6.146;2024-03-23T10:22:21;100758.47;;;10.88;100.00
31538;BME280;18147;51.952;6.146;2024-03-23T10:24:47;100762.00;;;11.29;100.00
31538;BME280;18147;51.952;6.146;2024-03-23T10:27:17;100764.94;;;11.51;100.00
31538;BME280;18147;51.952;6.146;2024-03-23T10:29:50;100749.81;;;11.90;100.00
31538;BME280;18147;51.952;6.146;2024-03-23T10:32:17;100743.88;;;12.60;100.00
31538;BME280;18147;51.952;6.146;2024-03-23T10:34:43;100744.69;;;12.73;100.00
31538;BME280;18147;51.952;6.146;2024-03-23T10:37:09;100742.56;;;13.13;100.00
31538;BME280;18147;51.952;6.146;2024-03-23T10:39:37;100749.72;;;13.13;100.00
31538;BME280;18147;51.952;6.146;2024-03-23T10:42:04;100761.97;;;12.56;99.92
31538;BME280;18147;51.952;6.146;2024-03-23T10:44:30;100764.97;;;12.15;97.97
31538;BME280;18147;51.952;6.146;2024-03-23T10:46:58;100770.66;;;11.85;99.35
31538;BME280;18147;51.952;6.146;2024-03-23T10:49:27;100766.31;;;11.70;97.28
31538;BME280;18147;51.952;6.146;2024-03-23T10:51:55;100793.06;;;10.90;91.89
31538;BME280;18147;51.952;6.146;2024-03-23T10:54:21;100796.50;;;10.22;97.88
31538;BME280;18147;51.952;6.146;2024-03-23T10:57:38;100771.47;;;9.96;100.00
31538;BME280;18147;51.952;6.146;2024-03-23T10:59:37;100760.06;;;9.80;100.00
31538;BME280;18147;51.952;6.146;2024-03-23T11:02:03;100769.66;;;9.82;100.00
31538;BME280;18147;51.952;6.146;2024-03-23T11:04:38;100767.00;;;10.11;100.00
31538;BME280;18147;51.952;6.146;2024-03-23T11:09:49;100751.06;;;10.52;100.00
31538;BME280;18147;51.952;6.146;2024-03-23T11:14:55;100741.31;;;11.20;100.00
31538;BME280;18147;51.952;6.146;2024-03-23T11:17:23;100742.28;;;11.70;100.00
31538;BME280;18147;51.952;6.146;2024-03-23T11:19:58;100740.50;;;11.83;95.12
31538;BME280;18147;51.952;6.146;2024-03-23T11:27:44;100744.75;;;11.98;86.26
31538;BME280;18147;51.952;6.146;2024-03-23T11:30:15;100743.28;;;11.94;83.09
31538;BME280;18147;51.952;6.146;2024-03-23T11:32:42;100752.97;;;11.57;81.37
31538;BME280;18147;51.952;6.146;2024-03-23T11:35:07;100742.22;;;11.97;84.17
31538;BME280;18147;51.952;6.146;2024-03-23T11:37:38;100747.22;;;11.50;82.17
31538;BME280;18147;51.952;6.146;2024-03-23T11:40:17;100741.38;;;11.18;82.05
31538;BME280;18147;51.952;6.146;2024-03-23T11:42:43;100740.25;;;11.35;86.39
31538;BME280;18147;51.952;6.146;2024-03-23T11:45:09;100741.31;;;11.20;86.03
31538;BME280;18147;51.952;6.146;2024-03-23T11:47:34;100750.50;;;11.54;84.63
31538;BME280;18147;51.952;6.146;2024-03-23T11:50:00;100743.56;;;11.51;81.96
31538;BME280;18147;51.952;6.146;2024-03-23T11:52:25;100738.31;;;12.13;83.48
31538;BME280;18147;51.952;6.146;2024-03-23T11:54:51;100735.66;;;12.13;81.00
31538;BME280;18147;51.952;6.146;2024-03-23T11:57:16;100743.16;;;12.08;79.41
31538;BME280;18147;51.952;6.146;2024-03-23T11:59:41;100728.41;;;12.15;79.57
31538;BME280;18147;51.952;6.146;2024-03-23T12:02:07;100753.94;;;11.81;78.73
31538;BME280;18147;51.952;6.146;2024-03-23T12:04:33;100728.00;;;11.45;80.40
31538;BME280;18147;51.952;6.146;2024-03-23T12:09:36;100751.28;;;10.76;80.09
31538;BME280;18147;51.952;6.146;2024-03-23T12:12:18;100741.38;;;10.51;81.88
31538;BME280;18147;51.952;6.146;2024-03-23T12:15:02;100740.47;;;10.24;84.27
31538;BME280;18147;51.952;6.146;2024-03-23T12:17:27;100734.59;;;10.60;86.02
31538;BME280;18147;51.952;6.146;2024-03-23T12:19:53;100730.34;;;10.43;85.83
31538;BME280;18147;51.952;6.146;2024-03-23T12:22:22;100745.13;;;10.34;85.86
31538;BME280;18147;51.952;6.146;2024-03-23T12:24:48;100735.06;;;10.52;87.23
31538;BME280;18147;51.952;6.146;2024-03-23T12:27:14;100732.88;;;11.26;84.49
31538;BME280;18147;51.952;6.146;2024-03-23T12:29:43;100724.81;;;11.00;81.33
31538;BME280;18147;51.952;6.146;2024-03-23T12:32:11;100725.06;;;10.83;81.55
31538;BME280;18147;51.952;6.146;2024-03-23T12:34:37;100718.47;;;10.61;83.48
31538;BME280;18147;51.952;6.146;2024-03-23T12:37:02;100727.94;;;10.53;85.66
31538;BME280;18147;51.952;6.146;2024-03-23T12:39:28;100730.66;;;10.10;88.73
31538;BME280;18147;51.952;6.146;2024-03-23T12:41:53;100720.34;;;10.18;91.11
31538;BME280;18147;51.952;6.146;2024-03-23T12:44:19;100722.75;;;10.64;92.37
31538;BME280;18147;51.952;6.146;2024-03-23T12:46:45;100708.81;;;11.00;90.29
31538;BME280;18147;51.952;6.146;2024-03-23T12:49:11;100718.22;;;11.19;90.86
31538;BME280;18147;51.952;6.146;2024-03-23T12:51:36;100706.38;;;11.48;91.08
31538;BME280;18147;51.952;6.146;2024-03-23T12:54:02;100712.38;;;11.26;91.09
31538;BME280;18147;51.952;6.146;2024-03-23T12:56:28;100718.09;;;11.07;90.60
31538;BME280;18147;51.952;6.146;2024-03-23T12:58:54;100699.75;;;11.28;89.36
31538;BME280;18147;51.952;6.146;2024-03-23T13:01:20;100710.41;;;11.03;87.00
31538;BME280;18147;51.952;6.146;2024-03-23T13:03:47;100700.78;;;11.00;85.23
31538;BME280;18147;51.952;6.146;2024-03-23T13:06:12;100707.75;;;11.15;85.03
31538;BME280;18147;51.952;6.146;2024-03-23T13:08:38;100699.97;;;11.38;86.87
31538;BME280;18147;51.952;6.146;2024-03-23T13:11:05;100709.06;;;11.35;83.04
31538;BME280;18147;51.952;6.146;2024-03-23T13:13:31;100706.31;;;10.97;82.93
31538;BME280;18147;51.952;6.146;2024-03-23T13:15:57;100697.94;;;11.16;85.36
31538;BME280;18147;51.952;6.146;2024-03-23T13:18:22;100684.69;;;12.04;88.38
31538;BME280;18147;51.952;6.146;2024-03-23T13:20:48;100687.84;;;12.22;86.97
31538;BME280;18147;51.952;6.146;2024-03-23T13:23:13;100678.91;;;12.10;80.31
31538;BME280;18147;51.952;6.146;2024-03-23T13:25:39;100683.47;;;12.21;77.63
31538;BME280;18147;51.952;6.146;2024-03-23T13:28:04;100678.66;;;12.13;77.67
31538;BME280;18147;51.952;6.146;2024-03-23T13:30:30;100678.81;;;12.59;75.46
31538;BME280;18147;51.952;6.146;2024-03-23T13:32:55;100680.25;;;12.52;73.67
31538;BME280;18147;51.952;6.146;2024-03-23T13:35:21;100682.22;;;12.37;72.32
31538;BME280;18147;51.952;6.146;2024-03-23T13:37:46;100685.00;;;12.12;72.68
31538;BME280;18147;51.952;6.146;2024-03-23T13:40:12;100680.03;;;11.82;71.46
31538;BME280;18147;51.952;6.146;2024-03-23T13:42:37;100690.34;;;11.99;72.60
31538;BME280;18147;51.952;6.146;2024-03-23T13:45:03;100691.44;;;11.84;69.93
31538;BME280;18147;51.952;6.146;2024-03-23T13:47:29;100681.16;;;11.78;72.43
31538;BME280;18147;51.952;6.146;2024-03-23T13:49:55;100685.34;;;11.69;75.14
31538;BME280;18147;51.952;6.146;2024-03-23T13:52:21;100680.84;;;11.70;76.86